createdAt,value
2016-04-12T14:00:12.817Z,33.05
2016-04-12T14:01:12.757Z,33.17
2016-04-12T14:02:12.790Z,32.68
2016-04-12T14:03:12.731Z,32.87
2016-04-12T14:04:12.796Z,33.65
2016-04-12T14:05:12.799Z,34.13
2016-04-12T14:06:12.802Z,33.83
2016-04-12T14:07:12.819Z,34.31
2016-04-12T14:08:12.838Z,34.12
2016-04-12T14:09:12.856Z,34.5
2016-04-12T14:10:12.890Z,35.28
2016-04-12T14:11:12.956Z,34.6
2016-04-12T14:12:12.975Z,35.08
2016-04-12T14:13:12.945Z,35.08
2016-04-12T14:14:12.964Z,34.89
2016-04-12T14:15:13.232Z,35.37
2016-04-12T14:16:13.422Z,34.89
2016-04-12T14:17:13.018Z,35.28
2016-04-12T14:18:13.099Z,35.55
2016-04-12T14:19:13.649Z,35.45
2016-04-12T14:20:13.338Z,35.64
2016-04-12T14:21:13.311Z,35.84
2016-04-12T14:22:13.282Z,35.55
2016-04-12T14:23:13.254Z,35.57
2016-04-12T14:24:13.319Z,35.74
2016-04-12T14:25:13.259Z,35.47
2016-04-12T14:26:13.262Z,35.47
2016-04-12T14:27:13.327Z,34.5
2016-04-12T14:28:13.345Z,32.47
2016-04-12T14:29:13.286Z,34.97
2016-04-12T14:30:13.382Z,35.63
2016-04-12T14:31:13.369Z,35.72
2016-04-12T14:32:13.325Z,35.84
2016-04-12T14:33:13.499Z,36.71
2016-04-12T14:34:13.565Z,35.45
2016-04-12T14:35:13.426Z,35.64
2016-04-12T14:36:13.414Z,35.36
2016-04-12T14:37:13.541Z,34.78
2016-04-12T14:38:13.747Z,34.48
2016-04-12T14:39:13.797Z,34.87
2016-04-12T14:40:13.503Z,34
2016-04-12T14:41:13.537Z,33.81
2016-04-12T14:42:13.555Z,33.91
2016-04-12T14:43:13.558Z,34.48
2016-04-12T14:44:13.685Z,34.48
2016-04-12T14:45:13.641Z,34.28
2016-04-12T14:46:13.675Z,34.78
2016-04-12T14:47:13.724Z,32.24
2016-04-12T14:48:13.649Z,32.06
2016-04-12T14:49:13.699Z,32.34
2016-04-12T14:50:13.794Z,31.76
2016-04-12T14:51:13.969Z,31.57
2016-04-12T14:52:13.988Z,31.57
2016-04-12T14:53:13.975Z,32.44
2016-04-12T14:54:13.790Z,31.38
2016-04-12T14:55:13.652Z,31.57
2016-04-12T14:56:13.857Z,31.48
2016-04-12T14:57:13.891Z,32.15
2016-04-12T14:58:13.957Z,31.57
2016-04-12T14:59:13.913Z,32.34
2016-04-12T15:00:13.885Z,32.73
2016-04-12T15:01:14.044Z,32.92
2016-04-12T15:02:13.984Z,33.4
2016-04-12T15:03:14.268Z,34.08
2016-04-12T15:04:14.145Z,33.89
2016-04-12T15:05:14.273Z,33.89
2016-04-12T15:06:14.010Z,34.28
2016-04-12T15:07:14.090Z,34.28
2016-04-12T15:08:14.187Z,34.66
2016-04-12T15:09:14.080Z,34.47
2016-04-12T15:10:14.255Z,34.86
2016-04-12T15:11:14.117Z,34.76
2016-04-12T15:12:14.198Z,34.95
2016-04-12T15:13:14.154Z,34.86
2016-04-12T15:14:15.484Z,34.86
2016-04-12T15:15:14.269Z,36.79
2016-04-12T15:16:14.224Z,34.97
2016-04-12T15:17:14.258Z,35.36
2016-04-12T15:18:14.261Z,35.34
2016-04-12T15:19:14.294Z,35.82
2016-04-12T15:20:15.282Z,35.34
2016-04-12T15:21:14.877Z,35.45
2016-04-12T15:22:14.380Z,35.72
2016-04-12T15:23:14.461Z,35.72
2016-04-12T15:24:14.371Z,35.92
2016-04-12T15:25:14.436Z,35.82
2016-04-12T15:26:14.454Z,35.92
2016-04-12T15:27:18.222Z,36.11
2016-04-12T15:28:14.506Z,36.21
2016-04-12T15:29:14.602Z,36.3
2016-04-12T15:30:14.512Z,35.92
2016-04-12T15:31:14.624Z,36.5
2016-04-12T15:32:14.549Z,36.3
2016-04-12T15:33:14.568Z,36.4
2016-04-12T15:34:14.648Z,36.52
2016-04-12T15:35:14.651Z,36.42
2016-04-12T15:36:14.637Z,36.4
2016-04-12T15:37:14.796Z,36.5
2016-04-12T15:38:14.659Z,36.79
2016-04-12T15:39:14.692Z,36.59
2016-04-12T15:40:14.726Z,36.3
2016-04-12T15:41:14.775Z,36.61
2016-04-12T15:42:14.747Z,36.8
2016-04-12T15:43:14.875Z,36.8
2016-04-12T15:44:14.800Z,37.17
2016-04-12T15:45:14.912Z,36.9
2016-04-12T15:46:15.039Z,37.19
2016-04-12T15:47:14.917Z,36.61
2016-04-12T15:48:14.872Z,36.52
2016-04-12T15:49:15.094Z,37
2016-04-12T15:50:15.222Z,37.27
2016-04-12T15:51:15.052Z,37.17
2016-04-12T15:52:15.086Z,37.46
2016-04-12T15:53:15.385Z,37.37
2016-04-12T15:54:15.452Z,37.56
2016-04-12T15:55:16.172Z,37.46
2016-04-12T15:56:16.254Z,37.46
2016-04-12T15:57:16.866Z,37.56
2016-04-12T15:58:15.072Z,37.85
2016-04-12T15:59:15.152Z,38.41
2016-04-12T16:00:15.280Z,37.83
2016-04-12T16:01:15.235Z,38.04
2016-04-12T16:02:15.254Z,38.04
2016-04-12T16:03:15.601Z,37.95
2016-04-12T16:04:15.307Z,37.75
2016-04-12T16:05:15.529Z,38.12
2016-04-12T16:06:15.624Z,37.93
2016-04-12T16:07:15.315Z,37.95
2016-04-12T16:08:15.489Z,38.14
2016-04-12T16:09:15.164Z,38.43
2016-04-12T16:10:15.479Z,38.33
2016-04-12T16:11:15.387Z,38.33
2016-04-12T16:12:15.359Z,38.23
2016-04-12T16:13:15.533Z,38.91
2016-04-12T16:14:15.458Z,39.2
2016-04-12T16:15:15.336Z,38.81
2016-04-12T16:16:15.495Z,38.81
2016-04-12T16:17:15.873Z,38.62
2016-04-12T16:18:16.234Z,38.23
2016-04-12T16:19:17.456Z,38.53
2016-04-12T16:20:16.177Z,38.91
2016-04-12T16:21:18.086Z,38.71
2016-04-12T16:22:17.463Z,40.84
2016-04-12T16:23:15.716Z,38.81
2016-04-12T16:24:15.672Z,38.33
2016-04-12T16:25:15.690Z,38.91
2016-04-12T16:26:15.647Z,38.6
2016-04-12T16:27:15.712Z,38.71
2016-04-12T16:28:15.933Z,38.91
2016-04-12T16:29:15.936Z,38.53
2016-04-12T16:30:15.767Z,38.91
2016-04-12T16:31:15.816Z,39.01
2016-04-12T16:32:15.788Z,38.79
2016-04-12T16:33:15.837Z,38.89
2016-04-12T16:34:15.809Z,38.89
2016-04-12T16:35:15.921Z,38.89
2016-04-12T16:36:16.002Z,38.7
2016-04-12T16:37:15.927Z,39.18
2016-04-12T16:38:15.929Z,38.79
2016-04-12T16:39:16.073Z,39.28
2016-04-12T16:40:16.028Z,39.76
2016-04-12T16:41:16.062Z,39.47
2016-04-12T16:42:15.955Z,39.66
2016-04-12T16:43:16.192Z,39.86
2016-04-12T16:44:16.008Z,39.76
2016-04-12T16:45:16.338Z,39.76
2016-04-12T16:46:16.450Z,39.95
2016-04-12T16:47:16.187Z,39.47
2016-04-12T16:48:16.503Z,40.24
2016-04-12T16:49:16.295Z,40.15
2016-04-12T16:50:17.525Z,40.24
2016-04-12T16:51:16.788Z,40.05
2016-04-12T16:52:16.784Z,40.24
2016-04-12T16:53:16.734Z,40.05
2016-04-12T16:54:16.580Z,40.44
2016-04-12T16:55:17.815Z,40.53
2016-04-12T16:56:17.099Z,40.92
2016-04-12T16:57:17.085Z,40.72
2016-04-12T16:58:16.555Z,40.99
2016-04-12T16:59:16.751Z,41.4
2016-04-12T17:00:16.822Z,41.69
2016-04-12T17:01:17.205Z,41.6
2016-04-12T17:02:16.760Z,41.6
2016-04-12T17:03:16.893Z,41.78
2016-04-12T17:04:16.710Z,41.77
2016-04-12T17:05:16.730Z,41.96
2016-04-12T17:06:16.766Z,42.36
2016-04-12T17:07:16.802Z,42.15
2016-04-12T17:08:16.807Z,42.85
2016-04-12T17:09:16.841Z,42.46
2016-04-12T17:10:16.845Z,42.66
2016-04-12T17:11:16.848Z,42.83
2016-04-12T17:12:16.898Z,42.93
2016-04-12T17:13:17.105Z,43.12
2016-04-12T17:14:16.967Z,43.24
2016-04-12T17:15:17.000Z,44.08
2016-04-12T17:16:17.191Z,43.62
2016-04-12T17:17:17.193Z,43.43
2016-04-12T17:18:17.149Z,43.62
2016-04-12T17:19:17.168Z,43.33
2016-04-12T17:20:17.185Z,44.01
2016-04-12T17:21:17.063Z,43.91
2016-04-12T17:22:17.129Z,44.01
2016-04-12T17:23:17.100Z,43.91
2016-04-12T17:24:17.135Z,43.91
2016-04-12T17:25:17.152Z,43.81
2016-04-12T17:26:17.171Z,44.03
2016-04-12T17:27:17.174Z,43.93
2016-04-12T17:28:17.207Z,44.51
2016-04-12T17:29:17.210Z,44.87
2016-04-12T17:30:17.243Z,45.26
2016-04-12T17:31:17.262Z,45.65
2016-04-12T17:32:17.281Z,45.45
2016-04-12T17:33:17.315Z,45.36
2016-04-12T17:34:17.333Z,45.36
2016-04-12T17:35:17.351Z,45.45
2016-04-12T17:36:17.370Z,45.75
2016-04-12T17:37:17.404Z,45.94
2016-04-12T17:38:17.406Z,45.55
2016-04-12T17:39:17.425Z,45.94
2016-04-12T17:40:17.442Z,45.84
2016-04-12T17:41:17.461Z,45.84
2016-04-12T17:42:17.495Z,45.55
2016-04-12T17:43:17.497Z,45.43
2016-04-12T17:44:17.531Z,45.24
2016-04-12T17:45:17.550Z,45.07
2016-04-12T17:46:17.568Z,45.72
2016-04-12T17:47:17.586Z,45.84
2016-04-12T17:48:17.604Z,45.62
2016-04-12T17:49:17.608Z,45.34
2016-04-12T17:50:17.830Z,45.04
2016-04-12T17:51:17.660Z,45.34
2016-04-12T17:52:17.678Z,45.14
2016-04-12T17:53:17.743Z,44.85
2016-04-12T17:54:17.715Z,45.14
2016-04-12T17:55:17.749Z,45.14
2016-04-12T17:56:17.767Z,44.85
2016-04-12T17:57:17.785Z,44.85
2016-04-12T17:58:17.803Z,44.95
2016-04-12T17:59:17.806Z,45.14
2016-04-12T18:00:17.841Z,45.24
2016-04-12T18:01:17.906Z,44.85
2016-04-12T18:02:17.892Z,44.85
2016-04-12T18:03:17.895Z,44.76
2016-04-12T18:04:17.914Z,44.85
2016-04-12T18:05:18.167Z,44.95
2016-04-12T18:06:17.951Z,44.83
2016-04-12T18:07:17.984Z,44.83
2016-04-12T18:08:18.002Z,44.45
2016-04-12T18:09:18.005Z,44.64
2016-04-12T18:10:18.039Z,44.85
2016-04-12T18:11:18.057Z,44.73
2016-04-12T18:12:18.075Z,44.46
2016-04-12T18:13:18.109Z,44.64
2016-04-12T18:14:18.112Z,44.73
2016-04-12T18:15:18.194Z,44.76
2016-04-12T18:16:18.164Z,44.83
2016-04-12T18:17:18.167Z,44.73
2016-04-12T18:18:18.201Z,44.83
2016-04-12T18:19:18.219Z,44.93
2016-04-12T18:20:18.597Z,44.93
2016-04-12T18:21:18.099Z,44.83
2016-04-12T18:22:18.274Z,45.03
2016-04-12T18:23:18.277Z,44.83
2016-04-12T18:24:18.296Z,44.93
2016-04-12T18:25:18.330Z,45.03
2016-04-12T18:26:18.363Z,44.73
2016-04-12T18:27:18.382Z,45.03
2016-04-12T18:28:18.385Z,44.93
2016-04-12T18:29:18.402Z,45.03
2016-04-12T18:30:18.437Z,44.35
2016-04-12T18:31:18.439Z,44.64
2016-04-12T18:32:18.457Z,44.35
2016-04-12T18:33:18.476Z,44.45
2016-04-12T18:34:18.495Z,44.25
2016-04-12T18:35:18.576Z,44.54
2016-04-12T18:36:18.531Z,44.35
2016-04-12T18:37:18.565Z,44.35
2016-04-12T18:38:18.567Z,44.35
2016-04-12T18:39:18.586Z,44.25
2016-04-12T18:40:18.636Z,44.25
2016-04-12T18:41:18.684Z,44.35
2016-04-12T18:42:18.656Z,44.35
2016-04-12T18:43:18.674Z,44.35
2016-04-12T18:44:18.692Z,44.35
2016-04-12T18:45:18.695Z,44.25
2016-04-12T18:46:18.776Z,44.25
2016-04-12T18:47:18.747Z,44.35
2016-04-12T18:48:18.766Z,44.35
2016-04-12T18:49:18.894Z,44.06
2016-04-12T18:50:18.833Z,43.87
2016-04-12T18:51:18.836Z,44.25
2016-04-12T18:52:18.855Z,43.96
2016-04-12T18:53:18.873Z,44.35
2016-04-12T18:54:18.891Z,44.45
2016-04-12T18:55:18.894Z,44.35
2016-04-12T18:56:18.991Z,43.96
2016-04-12T18:57:18.946Z,43.77
2016-04-12T18:58:18.965Z,43.87
2016-04-12T18:59:18.983Z,43.96
2016-04-12T19:00:19.018Z,44.23
2016-04-12T19:01:19.068Z,44.25
2016-04-12T19:02:19.054Z,44.42
2016-04-12T19:03:19.057Z,44.13
2016-04-12T19:04:19.075Z,44.23
2016-04-12T19:05:19.328Z,44.04
2016-04-12T19:06:19.159Z,43.75
2016-04-12T19:07:19.145Z,44.04
2016-04-12T19:08:19.148Z,43.87
2016-04-12T19:09:19.182Z,43.85
2016-04-12T19:10:19.201Z,43.85
2016-04-12T19:11:19.219Z,43.87
2016-04-12T19:12:19.237Z,43.77
2016-04-12T19:13:19.255Z,44.04
2016-04-12T19:14:19.273Z,43.87
2016-04-12T19:15:19.339Z,43.85
2016-04-12T19:16:19.311Z,43.94
2016-04-12T19:17:19.345Z,43.55
2016-04-12T19:18:19.378Z,44.04
2016-04-12T19:19:19.366Z,43.85
2016-04-12T19:20:19.259Z,43.94
2016-04-12T19:21:19.402Z,43.65
2016-04-12T19:22:19.420Z,44.04
2016-04-12T19:23:19.455Z,43.85
2016-04-12T19:24:19.504Z,43.85
2016-04-12T19:25:19.491Z,44.52
2016-04-12T19:26:19.510Z,44.73
2016-04-12T19:27:19.528Z,46.28
2016-04-12T19:28:19.546Z,46.47
2016-04-12T19:29:19.564Z,46.18
2016-04-12T19:30:19.599Z,46.47
2016-04-12T19:31:19.616Z,46.37
2016-04-12T19:32:19.618Z,46.47
2016-04-12T19:33:19.621Z,46.76
2016-04-12T19:34:19.656Z,46.76
2016-04-12T19:35:19.549Z,46.66
2016-04-12T19:36:19.707Z,46.56
2016-04-12T19:37:19.726Z,46.37
2016-04-12T19:38:19.744Z,46.76
2016-04-12T19:39:19.747Z,47.53
2016-04-12T19:40:19.781Z,47.53
2016-04-12T19:41:19.799Z,47.05
2016-04-12T19:42:19.817Z,46.76
2016-04-12T19:43:19.836Z,47.44
2016-04-12T19:44:19.854Z,47.44
2016-04-12T19:45:19.873Z,47.53
2016-04-12T19:46:19.906Z,47.44
2016-04-12T19:47:19.925Z,47.53
2016-04-12T19:48:19.927Z,47.34
2016-04-12T19:49:19.962Z,47.34
2016-04-12T19:50:19.980Z,47.44
2016-04-12T19:51:19.983Z,47.44
2016-04-12T19:52:20.016Z,47.53
2016-04-12T19:53:20.035Z,47.44
2016-04-12T19:54:20.053Z,47.44
2016-04-12T19:55:20.072Z,47.24
2016-04-12T19:56:20.105Z,47.63
2016-04-12T19:57:20.108Z,47.44
2016-04-12T19:58:20.173Z,47.44
2016-04-12T19:59:20.144Z,47.44
2016-04-12T20:00:20.194Z,47.44
2016-04-12T20:01:20.259Z,47.34
2016-04-12T20:02:20.215Z,47.44
2016-04-12T20:03:20.280Z,47.53
2016-04-12T20:04:20.251Z,47.53
2016-04-12T20:05:20.255Z,47.44
2016-04-12T20:06:20.335Z,47.44
2016-04-12T20:07:20.307Z,47.34
2016-04-12T20:08:20.399Z,47.34
2016-04-12T20:09:20.346Z,47.53
2016-04-12T20:10:20.349Z,47.34
2016-04-12T20:11:20.369Z,47.63
2016-04-12T20:12:20.386Z,47.34
2016-04-12T20:13:20.405Z,47.44
2016-04-12T20:14:20.439Z,47.63
2016-04-12T20:15:20.457Z,48.01
2016-04-12T20:16:20.476Z,48.11
2016-04-12T20:17:20.493Z,47.53
2016-04-12T20:18:20.560Z,47.82
2016-04-12T20:19:20.530Z,47.44
2016-04-12T20:20:20.549Z,47.82
2016-04-12T20:21:20.583Z,47.72
2016-04-12T20:22:20.585Z,47.63
2016-04-12T20:23:20.604Z,47.44
2016-04-12T20:24:20.638Z,47.53
2016-04-12T20:25:20.656Z,47.92
2016-04-12T20:26:20.673Z,47.82
2016-04-12T20:27:20.739Z,47.53
2016-04-12T20:28:20.711Z,47.63
2016-04-12T20:29:20.745Z,47.92
2016-04-12T20:30:20.747Z,47.44
2016-04-12T20:31:20.781Z,47.44
2016-04-12T20:32:20.800Z,47.72
2016-04-12T20:33:20.818Z,47.63
2016-04-12T20:34:20.852Z,47.82
2016-04-12T20:35:20.855Z,47.72
2016-04-12T20:36:20.873Z,47.82
2016-04-12T20:37:20.892Z,47.53
2016-04-12T20:38:20.910Z,47.7
2016-04-12T20:39:20.928Z,47.92
2016-04-12T20:40:20.947Z,47.63
2016-04-12T20:41:20.964Z,47.63
2016-04-12T20:42:20.983Z,47.72
2016-04-12T20:43:21.002Z,47.6
2016-04-12T20:44:21.036Z,47.89
2016-04-12T20:45:21.241Z,47.8
2016-04-12T20:46:21.057Z,47.7
2016-04-12T20:47:21.138Z,47.92
2016-04-12T20:48:21.171Z,47.8
2016-04-12T20:49:21.111Z,47.63
2016-04-12T20:50:21.146Z,47.24
2016-04-12T20:51:21.179Z,47.44
2016-04-12T20:52:21.182Z,47.6
2016-04-12T20:53:21.247Z,47.31
2016-04-12T20:54:21.218Z,47.41
2016-04-12T20:55:21.237Z,47.51
2016-04-12T20:56:21.271Z,47.51
2016-04-12T20:57:21.476Z,47.6
2016-04-12T20:58:21.292Z,48.4
2016-04-12T20:59:21.326Z,48.59
2016-04-12T21:00:21.328Z,48.66
2016-04-12T21:01:21.347Z,48.38
2016-04-12T21:02:21.537Z,49.05
2016-04-12T21:03:21.492Z,48.97
2016-04-12T21:04:21.417Z,48.95
2016-04-12T21:05:21.436Z,49.43
2016-04-12T21:06:21.453Z,49.65
2016-04-12T21:07:21.488Z,49.73
2016-04-12T21:08:21.506Z,49.73
2016-04-12T21:09:21.524Z,50.11
2016-04-12T21:10:21.589Z,50.3
2016-04-12T21:11:21.623Z,50.11
2016-04-12T21:12:21.767Z,50.11
2016-04-12T21:13:21.582Z,50.23
2016-04-12T21:14:21.725Z,50.21
2016-04-12T21:15:23.009Z,50.04
2016-04-12T21:16:21.778Z,50.21
2016-04-12T21:17:21.687Z,50.11
2016-04-12T21:18:21.704Z,50.21
2016-04-12T21:19:21.707Z,49.91
2016-04-12T21:20:21.741Z,50.11
2016-04-12T21:21:21.760Z,50.01
2016-04-12T21:22:21.779Z,50.01
2016-04-12T21:23:21.796Z,50.11
2016-04-12T21:24:21.815Z,50.11
2016-04-12T21:25:21.818Z,50.01
2016-04-12T21:26:21.835Z,50.01
2016-04-12T21:27:21.854Z,50.11
2016-04-12T21:28:21.888Z,50.11
2016-04-12T21:29:21.906Z,49.91
2016-04-12T21:30:21.925Z,50.42
2016-04-12T21:31:21.959Z,50.23
2016-04-12T21:32:21.961Z,50.13
2016-04-12T21:33:22.042Z,50.42
2016-04-12T21:34:22.045Z,50.13
2016-04-12T21:35:22.016Z,50.35
2016-04-12T21:36:22.034Z,50.16
2016-04-12T21:37:22.069Z,50.54
2016-04-12T21:38:22.087Z,51.03
2016-04-12T21:39:22.090Z,50.35
2016-04-12T21:40:22.123Z,50.06
2016-04-12T21:41:22.594Z,49.41
2016-04-12T21:42:22.160Z,49.8
2016-04-12T21:43:22.194Z,49.32
2016-04-12T21:44:22.197Z,49.22
2016-04-12T21:45:22.231Z,49.51
2016-04-12T21:46:22.233Z,49.8
2016-04-12T21:47:22.252Z,49.8
2016-04-12T21:48:22.270Z,49.6
2016-04-12T21:49:22.289Z,49.9
2016-04-12T21:50:22.322Z,49.68
2016-04-12T21:51:22.341Z,50.93
2016-04-12T21:52:22.515Z,49.51
2016-04-12T21:53:22.440Z,49.32
2016-04-12T21:54:22.457Z,49.8
2016-04-12T21:55:22.570Z,49.6
2016-04-12T21:56:22.682Z,49.6
2016-04-12T21:57:22.450Z,49.8
2016-04-12T21:59:21.487Z,49.7
2016-04-12T22:00:21.662Z,49.41
2016-04-12T22:01:24.821Z,49.22
2016-04-12T22:02:21.793Z,49.41
2016-04-12T22:03:22.779Z,49.8
2016-04-12T22:04:21.688Z,49.41
2016-04-12T22:05:22.816Z,49.51
2016-04-12T22:06:23.225Z,49.32
2016-04-12T22:07:25.025Z,49.22
2016-04-12T22:08:23.573Z,49.7
2016-04-12T22:09:21.983Z,49.41
2016-04-12T22:10:21.767Z,49.8
2016-04-12T22:11:21.738Z,49.32
2016-04-12T22:12:22.116Z,49.51
2016-04-12T22:13:21.962Z,49.41
2016-04-12T22:14:22.012Z,49.51
